createdAt,value
2022-08-03T00:03:08.502Z,78.64
2022-08-03T00:10:11.296Z,79.97
2022-08-03T00:17:14.867Z,79.99
2022-08-03T00:24:17.136Z,84.90
2022-08-03T00:31:39.831Z,91.64
2022-08-03T00:38:45.116Z,87.10
2022-08-03T00:45:50.174Z,89.58
2022-08-03T00:52:55.605Z,94.11
2022-08-03T01:00:00.352Z,92.32
2022-08-03T01:07:11.339Z,86.40
2022-08-03T01:14:18.985Z,84.66
2022-08-03T01:21:26.548Z,94.49
2022-08-03T01:28:39.714Z,96.79
2022-08-03T01:35:44.920Z,100.00
2022-08-03T01:42:47.225Z,100.00
2022-08-03T01:49:50.117Z,100.00
2022-08-03T01:56:54.108Z,100.00
2022-08-03T02:04:00.523Z,100.00
2022-08-03T02:11:04.659Z,100.00
2022-08-03T02:18:10.583Z,100.00
2022-08-03T02:25:14.836Z,100.00
2022-08-03T02:32:19.713Z,100.00
2022-08-03T02:39:24.282Z,100.00
2022-08-03T02:46:29.213Z,100.00
2022-08-03T02:53:31.599Z,100.00
2022-08-03T03:00:35.394Z,100.00
2022-08-03T03:07:52.099Z,100.00
2022-08-03T03:14:55.458Z,100.00
2022-08-03T03:21:59.122Z,100.00
2022-08-03T03:29:01.490Z,100.00
2022-08-03T03:36:04.769Z,100.00
2022-08-03T03:43:11.442Z,100.00
2022-08-03T03:50:13.672Z,100.00
2022-08-03T03:57:15.871Z,100.00
2022-08-03T04:04:38.237Z,100.00
2022-08-03T04:11:41.820Z,100.00
2022-08-03T04:18:45.991Z,100.00
2022-08-03T04:25:50.052Z,100.00
2022-08-03T04:32:52.871Z,100.00
2022-08-03T04:39:57.809Z,100.00
2022-08-03T04:47:01.510Z,100.00
2022-08-03T04:54:04.349Z,100.00
2022-08-03T05:01:06.832Z,100.00
2022-08-03T05:08:11.241Z,88.05
2022-08-03T05:15:13.802Z,90.57
2022-08-03T05:22:16.168Z,100.00
2022-08-03T05:29:19.864Z,90.68
2022-08-03T05:36:22.068Z,75.14
2022-08-03T05:43:24.537Z,79.76
2022-08-03T05:50:28.161Z,87.46
2022-08-03T05:57:30.375Z,81.34
2022-08-03T06:04:33.206Z,78.79
2022-08-03T06:11:36.870Z,81.47
2022-08-03T06:18:39.123Z,76.96
2022-08-03T06:25:41.953Z,73.57
2022-08-03T06:32:51.961Z,69.57
2022-08-03T06:39:54.827Z,69.07
2022-08-03T06:46:57.072Z,62.36
2022-08-03T06:54:00.808Z,62.02
2022-08-03T07:01:03.157Z,63.22
2022-08-03T07:08:05.495Z,60.96
2022-08-03T07:15:20.665Z,59.07
2022-08-03T07:22:32.445Z,54.87
2022-08-03T07:29:34.852Z,51.60
2022-08-03T07:36:38.414Z,48.50
2022-08-03T07:43:40.609Z,47.46
2022-08-03T07:50:42.908Z,43.73
2022-08-03T07:57:46.649Z,45.04
2022-08-03T08:04:48.832Z,42.95
2022-08-03T08:11:51.011Z,42.97
2022-08-03T08:18:54.569Z,42.13
2022-08-03T08:25:56.772Z,40.24
2022-08-03T08:32:58.974Z,40.16
2022-08-03T08:40:02.528Z,39.94
2022-08-03T08:47:04.937Z,39.09
2022-08-03T08:54:07.575Z,37.47
2022-08-03T09:01:11.197Z,37.93
2022-08-03T09:08:13.507Z,38.70
2022-08-03T09:15:20.436Z,37.83
2022-08-03T09:22:25.753Z,38.97
2022-08-03T09:29:28.217Z,39.78
2022-08-03T09:36:37.465Z,40.03
2022-08-03T09:43:47.551Z,37.94
2022-08-03T09:50:58.592Z,39.11
2022-08-03T09:58:14.251Z,38.06
2022-08-03T10:05:19.870Z,36.81
2022-08-03T10:12:22.297Z,36.05
2022-08-03T10:19:25.605Z,35.57
2022-08-03T10:26:29.152Z,35.97
2022-08-03T10:33:51.813Z,34.59
2022-08-03T10:40:58.922Z,34.37
2022-08-03T10:48:03.134Z,32.77
2022-08-03T10:55:47.875Z,33.87
2022-08-03T11:03:12.613Z,33.15
2022-08-03T11:10:30.063Z,33.24
2022-08-03T11:17:46.364Z,30.71
2022-08-03T11:24:59.967Z,30.99
2022-08-03T11:32:02.190Z,29.68
2022-08-03T11:39:13.451Z,29.61
2022-08-03T11:46:28.500Z,31.63
2022-08-03T11:53:32.199Z,31.13
2022-08-03T12:00:34.467Z,30.82
2022-08-03T12:08:03.516Z,31.44
2022-08-03T12:15:01.484Z,31.55
2022-08-03T12:22:03.829Z,31.03
2022-08-03T12:29:07.371Z,29.41
2022-08-03T12:36:10.109Z,29.31
2022-08-03T12:43:13.025Z,28.74
2022-08-03T12:50:25.577Z,27.76
2022-08-03T12:57:40.372Z,27.51
2022-08-03T13:04:45.167Z,32.00
2022-08-03T13:12:02.271Z,32.70
2022-08-03T13:19:05.225Z,31.52
2022-08-03T13:26:08.257Z,32.86
2022-08-03T13:33:11.813Z,33.99
2022-08-03T13:40:14.761Z,32.87
2022-08-03T13:47:17.689Z,34.54
2022-08-03T13:54:21.450Z,35.72
2022-08-03T14:01:54.324Z,34.70
2022-08-03T14:08:49.274Z,33.82
2022-08-03T14:15:52.877Z,35.35
2022-08-03T14:22:57.463Z,35.75
2022-08-03T14:30:01.372Z,34.49
2022-08-03T14:37:05.071Z,34.91
2022-08-03T14:44:07.984Z,34.42
2022-08-03T14:51:10.416Z,34.15
2022-08-03T14:58:20.688Z,34.05
2022-08-03T15:05:24.002Z,34.71
2022-08-03T15:12:26.233Z,34.08
2022-08-03T15:20:04.061Z,35.51
2022-08-03T15:26:52.343Z,34.17
2022-08-03T15:33:54.573Z,33.60
2022-08-03T15:40:58.995Z,34.40
2022-08-03T15:48:01.407Z,34.71
2022-08-03T15:55:06.369Z,35.67
2022-08-03T16:02:09.989Z,35.43
2022-08-03T16:09:23.425Z,35.08
2022-08-03T16:16:35.235Z,35.35
2022-08-03T16:23:39.742Z,36.01
2022-08-03T16:30:45.965Z,35.49
2022-08-03T16:37:56.221Z,36.29
2022-08-03T16:45:00.522Z,34.91
2022-08-03T16:52:02.817Z,34.71
2022-08-03T16:59:05.038Z,37.36
2022-08-03T17:06:10.532Z,37.83
2022-08-03T17:13:21.538Z,36.10
2022-08-03T17:20:29.833Z,35.09
2022-08-03T17:28:48.764Z,36.34
2022-08-03T17:34:55.796Z,36.78
2022-08-03T18:07:11.091Z,37.62
2022-08-03T18:14:16.400Z,37.43
2022-08-03T18:21:21.413Z,37.01
2022-08-03T18:28:24.976Z,37.67
2022-08-03T18:35:53.667Z,38.64
2022-08-03T18:42:54.855Z,39.22
2022-08-03T18:50:01.690Z,38.84
2022-08-03T18:57:06.579Z,39.75
2022-08-03T19:04:12.339Z,39.79
2022-08-03T19:11:17.567Z,40.63
2022-08-03T19:18:20.807Z,40.73
2022-08-03T19:25:34.413Z,40.71
2022-08-03T19:32:39.503Z,41.16
2022-08-03T19:39:56.526Z,41.05
2022-08-03T19:47:08.400Z,41.49
2022-08-03T19:54:14.221Z,41.11
2022-08-03T20:01:21.508Z,42.93
2022-08-03T20:08:28.450Z,48.45
2022-08-03T20:15:32.849Z,48.50
2022-08-03T20:22:45.603Z,45.87
2022-08-03T20:30:06.689Z,45.83
2022-08-03T20:37:12.111Z,45.30
2022-08-03T20:44:16.399Z,44.88
2022-08-03T20:51:49.910Z,44.51
2022-08-03T20:58:50.253Z,43.75
2022-08-03T21:05:55.375Z,43.22
2022-08-03T21:13:05.680Z,37.85
2022-08-03T21:13:14.914Z,42.79
2022-08-03T21:20:20.010Z,43.87
2022-08-03T21:27:25.425Z,43.55
2022-08-03T21:34:29.067Z,43.44
2022-08-03T21:41:31.855Z,43.54
2022-08-03T21:48:36.468Z,42.61
2022-08-03T21:55:40.262Z,42.60
2022-08-03T22:02:44.409Z,41.99
2022-08-03T22:09:55.622Z,41.90
2022-08-03T22:16:59.341Z,41.71
2022-08-03T22:24:02.264Z,42.22
2022-08-03T22:31:30.920Z,43.45
2022-08-03T22:38:28.222Z,43.33
2022-08-03T22:46:07.428Z,43.95
2022-08-03T22:52:52.935Z,44.45
2022-08-03T22:59:56.890Z,43.87
2022-08-03T23:07:00.940Z,43.30
2022-08-03T23:14:04.220Z,42.99
2022-08-03T23:21:11.329Z,43.19
2022-08-03T23:28:14.465Z,42.97
2022-08-03T23:36:27.550Z,42.69
2022-08-03T23:42:59.230Z,43.21
2022-08-03T23:50:01.620Z,46.16
2022-08-03T23:57:08.100Z,51.95
